createdAt,value
2022-09-14T00:13:03.011Z,15.31
2022-09-14T00:33:05.950Z,15.29
2022-09-14T00:53:08.464Z,15.64
2022-09-14T01:13:10.887Z,15.80
2022-09-14T01:33:13.420Z,15.68
2022-09-14T01:53:16.182Z,15.55
2022-09-14T02:13:18.697Z,15.42
2022-09-14T02:33:21.433Z,14.82
2022-09-14T02:53:24.127Z,14.50
2022-09-14T03:13:26.539Z,14.41
2022-09-14T03:33:29.091Z,14.51
2022-09-14T03:53:31.771Z,14.37
2022-09-14T04:13:34.205Z,14.40
2022-09-14T04:33:36.942Z,14.17
2022-09-14T04:53:39.513Z,14.33
2022-09-14T05:13:43.418Z,14.45
2022-09-14T05:33:49.039Z,15.00
2022-09-14T05:53:51.778Z,15.96
2022-09-14T06:13:54.234Z,17.65
2022-09-14T06:33:56.979Z,18.56
2022-09-14T06:54:01.214Z,19.18
2022-09-14T07:14:04.394Z,19.85
2022-09-14T07:34:07.081Z,20.61
2022-09-14T07:54:10.029Z,20.92
2022-09-14T08:14:13.118Z,20.92
2022-09-14T08:34:15.933Z,21.70
2022-09-14T08:54:19.103Z,22.24
2022-09-14T09:14:21.517Z,23.24
2022-09-14T09:34:24.098Z,23.73
2022-09-14T09:54:26.821Z,24.21
2022-09-14T10:14:29.299Z,23.71
2022-09-14T10:34:31.908Z,24.56
2022-09-14T10:54:34.907Z,24.48
2022-09-14T11:14:37.672Z,23.56
2022-09-14T11:34:40.138Z,23.27
2022-09-14T11:54:46.688Z,22.84
2022-09-14T12:14:49.442Z,22.54
2022-09-14T12:34:51.991Z,21.31
2022-09-14T12:54:54.699Z,20.63
2022-09-14T13:14:57.202Z,21.03
2022-09-14T13:35:00.348Z,20.45
2022-09-14T13:55:02.814Z,20.75
2022-09-14T14:15:05.217Z,21.73
2022-09-14T14:35:07.923Z,21.95
2022-09-14T14:55:11.196Z,20.81
2022-09-14T15:15:13.777Z,20.18
2022-09-14T15:35:16.431Z,20.13
2022-09-14T15:55:19.083Z,19.77
2022-09-14T16:15:21.663Z,19.69
2022-09-14T16:35:24.383Z,19.39
2022-09-14T16:55:27.067Z,19.25
2022-09-14T17:15:29.486Z,18.70
2022-09-14T17:35:31.964Z,18.67
2022-09-14T17:55:34.783Z,18.52
2022-09-14T18:15:40.433Z,18.39
2022-09-14T18:35:43.628Z,18.37
2022-09-14T18:55:46.345Z,18.15
2022-09-14T19:15:48.826Z,18.09
2022-09-14T19:35:52.016Z,17.91
2022-09-14T19:55:54.521Z,17.79
2022-09-14T20:15:56.947Z,17.73
2022-09-14T20:35:59.634Z,17.73
2022-09-14T20:56:02.346Z,17.82
2022-09-14T21:16:04.805Z,17.83
2022-09-14T21:36:07.642Z,17.81
2022-09-14T21:56:10.235Z,17.68
2022-09-14T22:16:12.723Z,17.67
2022-09-14T22:36:16.237Z,17.72
2022-09-14T22:56:18.829Z,17.66
2022-09-14T23:16:21.224Z,17.65
2022-09-14T23:36:23.865Z,17.69
2022-09-14T23:56:26.385Z,17.59
